Terminal Aerodrome Forecast
Issued by NWS

Home | Current Version | Previous Version | Text Only | Print | Product List | Glossary On
Versions: 1 2 3 4 5 6 7 8 9 10 11 12 13 14 15
631
FTUS43 KMQT 030533
TAFIWD
TAF
KIWD 030533Z 0306/0406 20003KT P6SM SKC
     FM031300 23009KT P6SM SCT150
     FM031500 25011G17KT P6SM VCSH OVC110
     FM031700 28012G20KT P6SM -SHRA OVC070
     FM032000 31010G16KT P6SM VCSH BKN080
     FM032100 32009KT P6SM VCSH SCT080
     FM032300 36009KT P6SM SCT070
      AMD LTD TO CLD VIS AND WIND=

USA.gov is the U.S. government's official web portal to all federal, state and local government web resources and services.